sensor_id;sensor_type;location;lat;lon;timestamp;P1;durP1;ratioP1;P2;durP2;ratioP2
5458;SDS011;2752;49.992;8.422;2023-06-26T00:01:46;8.20;;;4.80;;
5458;SDS011;2752;49.992;8.422;2023-06-26T00:04:13;8.37;;;4.93;;
5458;SDS011;2752;49.992;8.422;2023-06-26T00:06:40;8.77;;;5.50;;
5458;SDS011;2752;49.992;8.422;2023-06-26T00:09:07;10.10;;;5.47;;
5458;SDS011;2752;49.992;8.422;2023-06-26T00:11:35;7.10;;;4.90;;
5458;SDS011;2752;49.992;8.422;2023-06-26T00:14:02;7.40;;;4.90;;
5458;SDS011;2752;49.992;8.422;2023-06-26T00:16:28;9.33;;;4.83;;
5458;SDS011;2752;49.992;8.422;2023-06-26T00:18:56;10.93;;;4.90;;
5458;SDS011;2752;49.992;8.422;2023-06-26T00:21:23;10.70;;;5.20;;
5458;SDS011;2752;49.992;8.422;2023-06-26T00:23:52;15.63;;;5.40;;
5458;SDS011;2752;49.992;8.422;2023-06-26T00:26:18;8.00;;;4.63;;
5458;SDS011;2752;49.992;8.422;2023-06-26T00:28:46;11.80;;;5.00;;
5458;SDS011;2752;49.992;8.422;2023-06-26T00:31:13;8.63;;;5.10;;
5458;SDS011;2752;49.992;8.422;2023-06-26T00:33:40;16.73;;;5.43;;
5458;SDS011;2752;49.992;8.422;2023-06-26T00:36:06;9.73;;;5.50;;
5458;SDS011;2752;49.992;8.422;2023-06-26T00:38:33;9.50;;;5.33;;
5458;SDS011;2752;49.992;8.422;2023-06-26T00:41:00;8.23;;;5.30;;
5458;SDS011;2752;49.992;8.422;2023-06-26T00:43:27;8.70;;;5.10;;
5458;SDS011;2752;49.992;8.422;2023-06-26T00:45:55;9.73;;;5.40;;
5458;SDS011;2752;49.992;8.422;2023-06-26T00:48:22;7.63;;;4.87;;
5458;SDS011;2752;49.992;8.422;2023-06-26T00:50:48;9.67;;;5.93;;
5458;SDS011;2752;49.992;8.422;2023-06-26T00:53:15;10.83;;;5.80;;
5458;SDS011;2752;49.992;8.422;2023-06-26T00:55:42;12.80;;;5.40;;
5458;SDS011;2752;49.992;8.422;2023-06-26T00:58:09;12.10;;;5.50;;
5458;SDS011;2752;49.992;8.422;2023-06-26T01:00:36;9.17;;;5.57;;
5458;SDS011;2752;49.992;8.422;2023-06-26T01:03:04;16.53;;;5.03;;
5458;SDS011;2752;49.992;8.422;2023-06-26T01:05:30;11.93;;;5.67;;
5458;SDS011;2752;49.992;8.422;2023-06-26T01:07:57;11.30;;;5.00;;
5458;SDS011;2752;49.992;8.422;2023-06-26T01:10:25;12.90;;;5.50;;
5458;SDS011;2752;49.992;8.422;2023-06-26T01:12:53;11.03;;;5.80;;
5458;SDS011;2752;49.992;8.422;2023-06-26T01:15:20;9.43;;;5.67;;
5458;SDS011;2752;49.992;8.422;2023-06-26T01:17:47;10.03;;;5.40;;
5458;SDS011;2752;49.992;8.422;2023-06-26T01:20:15;9.43;;;5.30;;
5458;SDS011;2752;49.992;8.422;2023-06-26T01:22:45;9.70;;;5.10;;
5458;SDS011;2752;49.992;8.422;2023-06-26T01:25:20;12.77;;;5.93;;
5458;SDS011;2752;49.992;8.422;2023-06-26T01:27:56;12.00;;;5.50;;
5458;SDS011;2752;49.992;8.422;2023-06-26T01:30:23;9.00;;;5.70;;
5458;SDS011;2752;49.992;8.422;2023-06-26T01:32:51;13.13;;;5.60;;
5458;SDS011;2752;49.992;8.422;2023-06-26T01:35:18;12.60;;;5.50;;
5458;SDS011;2752;49.992;8.422;2023-06-26T01:37:45;13.67;;;5.80;;
5458;SDS011;2752;49.992;8.422;2023-06-26T01:40:12;7.63;;;4.93;;
5458;SDS011;2752;49.992;8.422;2023-06-26T01:42:38;8.97;;;4.70;;
5458;SDS011;2752;49.992;8.422;2023-06-26T01:45:09;11.93;;;6.13;;
5458;SDS011;2752;49.992;8.422;2023-06-26T01:47:41;9.33;;;4.63;;
5458;SDS011;2752;49.992;8.422;2023-06-26T01:50:16;7.57;;;4.87;;
5458;SDS011;2752;49.992;8.422;2023-06-26T01:52:49;10.03;;;5.43;;
5458;SDS011;2752;49.992;8.422;2023-06-26T01:55:26;9.70;;;5.33;;
5458;SDS011;2752;49.992;8.422;2023-06-26T01:58:00;10.93;;;5.90;;
5458;SDS011;2752;49.992;8.422;2023-06-26T02:00:29;10.97;;;5.20;;
5458;SDS011;2752;49.992;8.422;2023-06-26T02:02:57;11.00;;;5.60;;
5458;SDS011;2752;49.992;8.422;2023-06-26T02:05:23;8.53;;;5.00;;
5458;SDS011;2752;49.992;8.422;2023-06-26T02:07:50;12.03;;;5.83;;
5458;SDS011;2752;49.992;8.422;2023-06-26T02:10:17;11.10;;;5.53;;
5458;SDS011;2752;49.992;8.422;2023-06-26T02:12:44;10.00;;;5.70;;
5458;SDS011;2752;49.992;8.422;2023-06-26T02:15:10;11.67;;;5.87;;
5458;SDS011;2752;49.992;8.422;2023-06-26T02:17:38;11.77;;;6.00;;
5458;SDS011;2752;49.992;8.422;2023-06-26T02:20:05;8.73;;;5.00;;
5458;SDS011;2752;49.992;8.422;2023-06-26T02:22:34;8.90;;;5.43;;
5458;SDS011;2752;49.992;8.422;2023-06-26T02:25:01;8.97;;;5.60;;
5458;SDS011;2752;49.992;8.422;2023-06-26T02:27:27;10.27;;;6.20;;
5458;SDS011;2752;49.992;8.422;2023-06-26T02:29:54;10.03;;;5.80;;
5458;SDS011;2752;49.992;8.422;2023-06-26T02:32:20;11.37;;;5.50;;
5458;SDS011;2752;49.992;8.422;2023-06-26T02:34:48;9.53;;;5.73;;
5458;SDS011;2752;49.992;8.422;2023-06-26T02:37:16;17.13;;;6.57;;
5458;SDS011;2752;49.992;8.422;2023-06-26T02:39:43;8.40;;;5.60;;
5458;SDS011;2752;49.992;8.422;2023-06-26T02:42:10;10.03;;;5.73;;
5458;SDS011;2752;49.992;8.422;2023-06-26T02:44:36;19.50;;;6.70;;
5458;SDS011;2752;49.992;8.422;2023-06-26T02:47:03;11.13;;;6.30;;
5458;SDS011;2752;49.992;8.422;2023-06-26T02:49:30;14.23;;;5.20;;
5458;SDS011;2752;49.992;8.422;2023-06-26T02:51:58;15.70;;;6.00;;
5458;SDS011;2752;49.992;8.422;2023-06-26T02:54:24;12.93;;;6.20;;
5458;SDS011;2752;49.992;8.422;2023-06-26T02:56:51;10.17;;;5.83;;
5458;SDS011;2752;49.992;8.422;2023-06-26T02:59:18;15.33;;;6.63;;
5458;SDS011;2752;49.992;8.422;2023-06-26T03:01:44;7.70;;;4.97;;
5458;SDS011;2752;49.992;8.422;2023-06-26T03:04:12;11.17;;;6.50;;
5458;SDS011;2752;49.992;8.422;2023-06-26T03:06:40;11.03;;;6.10;;
5458;SDS011;2752;49.992;8.422;2023-06-26T03:09:08;12.33;;;6.50;;
5458;SDS011;2752;49.992;8.422;2023-06-26T03:11:35;10.37;;;6.00;;
5458;SDS011;2752;49.992;8.422;2023-06-26T03:14:01;20.83;;;6.17;;
5458;SDS011;2752;49.992;8.422;2023-06-26T03:16:28;12.13;;;6.60;;
5458;SDS011;2752;49.992;8.422;2023-06-26T03:18:54;11.20;;;6.87;;
5458;SDS011;2752;49.992;8.422;2023-06-26T03:21:21;12.93;;;6.70;;
5458;SDS011;2752;49.992;8.422;2023-06-26T03:23:48;10.13;;;6.60;;
5458;SDS011;2752;49.992;8.422;2023-06-26T03:26:16;9.47;;;5.90;;
5458;SDS011;2752;49.992;8.422;2023-06-26T03:28:42;12.43;;;6.30;;
5458;SDS011;2752;49.992;8.422;2023-06-26T03:31:09;11.30;;;6.43;;
5458;SDS011;2752;49.992;8.422;2023-06-26T03:33:37;13.07;;;6.37;;
5458;SDS011;2752;49.992;8.422;2023-06-26T03:36:04;16.27;;;6.87;;
5458;SDS011;2752;49.992;8.422;2023-06-26T03:38:31;13.93;;;7.40;;
5458;SDS011;2752;49.992;8.422;2023-06-26T03:40:58;15.23;;;7.60;;
5458;SDS011;2752;49.992;8.422;2023-06-26T03:43:26;14.07;;;6.80;;
5458;SDS011;2752;49.992;8.422;2023-06-26T03:45:53;13.53;;;7.00;;
5458;SDS011;2752;49.992;8.422;2023-06-26T03:48:19;12.83;;;6.83;;
5458;SDS011;2752;49.992;8.422;2023-06-26T03:50:46;12.63;;;7.03;;
5458;SDS011;2752;49.992;8.422;2023-06-26T03:53:13;14.07;;;7.47;;
5458;SDS011;2752;49.992;8.422;2023-06-26T03:55:40;11.97;;;6.13;;
5458;SDS011;2752;49.992;8.422;2023-06-26T03:58:06;17.20;;;6.83;;
5458;SDS011;2752;49.992;8.422;2023-06-26T04:00:34;13.83;;;5.93;;
5458;SDS011;2752;49.992;8.422;2023-06-26T04:03:01;9.00;;;5.77;;
5458;SDS011;2752;49.992;8.422;2023-06-26T04:05:29;15.67;;;7.33;;
5458;SDS011;2752;49.992;8.422;2023-06-26T04:07:55;11.07;;;5.83;;
5458;SDS011;2752;49.992;8.422;2023-06-26T04:10:22;10.80;;;6.83;;
5458;SDS011;2752;49.992;8.422;2023-06-26T04:12:49;11.83;;;6.23;;
5458;SDS011;2752;49.992;8.422;2023-06-26T04:15:15;11.97;;;6.53;;
5458;SDS011;2752;49.992;8.422;2023-06-26T04:17:43;11.03;;;5.63;;
5458;SDS011;2752;49.992;8.422;2023-06-26T04:20:10;16.60;;;6.47;;
5458;SDS011;2752;49.992;8.422;2023-06-26T04:22:37;13.57;;;6.87;;
5458;SDS011;2752;49.992;8.422;2023-06-26T04:25:03;13.10;;;6.17;;
5458;SDS011;2752;49.992;8.422;2023-06-26T04:27:31;16.10;;;6.73;;
5458;SDS011;2752;49.992;8.422;2023-06-26T04:29:58;10.10;;;6.40;;
5458;SDS011;2752;49.992;8.422;2023-06-26T04:32:25;11.20;;;6.40;;
5458;SDS011;2752;49.992;8.422;2023-06-26T04:34:53;14.30;;;6.63;;
5458;SDS011;2752;49.992;8.422;2023-06-26T04:37:19;12.30;;;6.10;;
5458;SDS011;2752;49.992;8.422;2023-06-26T04:39:46;10.63;;;6.07;;
5458;SDS011;2752;49.992;8.422;2023-06-26T04:42:14;12.40;;;6.10;;
5458;SDS011;2752;49.992;8.422;2023-06-26T04:44:40;13.23;;;6.40;;
5458;SDS011;2752;49.992;8.422;2023-06-26T04:47:07;12.80;;;5.90;;
5458;SDS011;2752;49.992;8.422;2023-06-26T04:49:34;8.80;;;5.60;;
5458;SDS011;2752;49.992;8.422;2023-06-26T04:52:02;11.10;;;6.03;;
5458;SDS011;2752;49.992;8.422;2023-06-26T04:54:29;13.27;;;7.40;;
5458;SDS011;2752;49.992;8.422;2023-06-26T04:56:56;13.83;;;6.20;;
5458;SDS011;2752;49.992;8.422;2023-06-26T04:59:22;10.03;;;6.10;;
5458;SDS011;2752;49.992;8.422;2023-06-26T05:01:49;9.37;;;5.40;;
5458;SDS011;2752;49.992;8.422;2023-06-26T05:04:16;14.03;;;6.70;;
5458;SDS011;2752;49.992;8.422;2023-06-26T05:06:42;17.13;;;6.83;;
5458;SDS011;2752;49.992;8.422;2023-06-26T05:09:10;16.80;;;7.00;;
5458;SDS011;2752;49.992;8.422;2023-06-26T05:11:37;12.70;;;6.80;;
5458;SDS011;2752;49.992;8.422;2023-06-26T05:14:04;12.40;;;6.20;;
5458;SDS011;2752;49.992;8.422;2023-06-26T05:16:32;12.03;;;6.87;;
5458;SDS011;2752;49.992;8.422;2023-06-26T05:18:59;12.23;;;7.20;;
5458;SDS011;2752;49.992;8.422;2023-06-26T05:21:25;17.70;;;7.20;;
5458;SDS011;2752;49.992;8.422;2023-06-26T05:23:52;20.23;;;7.50;;
5458;SDS011;2752;49.992;8.422;2023-06-26T05:26:23;15.80;;;7.77;;
5458;SDS011;2752;49.992;8.422;2023-06-26T05:28:51;15.57;;;7.13;;
5458;SDS011;2752;49.992;8.422;2023-06-26T05:31:18;35.17;;;7.07;;
5458;SDS011;2752;49.992;8.422;2023-06-26T05:33:45;14.23;;;6.80;;
5458;SDS011;2752;49.992;8.422;2023-06-26T05:36:13;14.70;;;6.90;;
5458;SDS011;2752;49.992;8.422;2023-06-26T05:38:42;14.07;;;7.33;;
5458;SDS011;2752;49.992;8.422;2023-06-26T05:41:09;15.60;;;6.40;;
5458;SDS011;2752;49.992;8.422;2023-06-26T05:43:38;15.07;;;7.20;;
5458;SDS011;2752;49.992;8.422;2023-06-26T05:46:05;13.07;;;6.03;;
5458;SDS011;2752;49.992;8.422;2023-06-26T05:48:31;15.33;;;5.67;;
5458;SDS011;2752;49.992;8.422;2023-06-26T05:50:58;11.33;;;5.53;;
5458;SDS011;2752;49.992;8.422;2023-06-26T05:53:25;13.27;;;6.37;;
5458;SDS011;2752;49.992;8.422;2023-06-26T05:55:53;12.20;;;6.23;;
5458;SDS011;2752;49.992;8.422;2023-06-26T05:58:20;12.90;;;5.67;;
5458;SDS011;2752;49.992;8.422;2023-06-26T06:00:51;11.03;;;5.70;;
5458;SDS011;2752;49.992;8.422;2023-06-26T06:03:17;8.83;;;5.30;;
5458;SDS011;2752;49.992;8.422;2023-06-26T06:05:44;10.63;;;5.97;;
5458;SDS011;2752;49.992;8.422;2023-06-26T06:08:10;11.67;;;5.97;;
5458;SDS011;2752;49.992;8.422;2023-06-26T06:10:37;9.50;;;5.17;;
5458;SDS011;2752;49.992;8.422;2023-06-26T06:13:04;11.93;;;4.80;;
5458;SDS011;2752;49.992;8.422;2023-06-26T06:15:30;9.87;;;4.93;;
5458;SDS011;2752;49.992;8.422;2023-06-26T06:17:58;10.53;;;5.23;;
5458;SDS011;2752;49.992;8.422;2023-06-26T06:20:25;10.80;;;5.30;;
5458;SDS011;2752;49.992;8.422;2023-06-26T06:22:52;9.47;;;4.87;;
5458;SDS011;2752;49.992;8.422;2023-06-26T06:25:18;9.97;;;4.70;;
5458;SDS011;2752;49.992;8.422;2023-06-26T06:27:45;7.20;;;4.70;;
5458;SDS011;2752;49.992;8.422;2023-06-26T06:30:12;9.50;;;5.30;;
5458;SDS011;2752;49.992;8.422;2023-06-26T06:32:39;11.93;;;5.30;;
5458;SDS011;2752;49.992;8.422;2023-06-26T06:35:07;10.30;;;5.23;;
5458;SDS011;2752;49.992;8.422;2023-06-26T06:37:35;9.87;;;5.43;;
5458;SDS011;2752;49.992;8.422;2023-06-26T06:40:02;7.93;;;5.10;;
5458;SDS011;2752;49.992;8.422;2023-06-26T06:42:30;12.00;;;5.03;;
5458;SDS011;2752;49.992;8.422;2023-06-26T06:44:57;10.37;;;5.80;;
5458;SDS011;2752;49.992;8.422;2023-06-26T06:47:24;10.33;;;5.57;;
5458;SDS011;2752;49.992;8.422;2023-06-26T06:49:51;8.90;;;4.50;;
5458;SDS011;2752;49.992;8.422;2023-06-26T06:52:19;7.93;;;5.20;;
5458;SDS011;2752;49.992;8.422;2023-06-26T06:54:51;9.77;;;5.17;;
5458;SDS011;2752;49.992;8.422;2023-06-26T06:57:19;10.87;;;5.43;;
5458;SDS011;2752;49.992;8.422;2023-06-26T06:59:46;10.30;;;5.43;;
5458;SDS011;2752;49.992;8.422;2023-06-26T07:02:13;8.63;;;5.33;;
5458;SDS011;2752;49.992;8.422;2023-06-26T07:04:40;9.03;;;5.87;;
5458;SDS011;2752;49.992;8.422;2023-06-26T07:07:06;11.53;;;5.57;;
5458;SDS011;2752;49.992;8.422;2023-06-26T07:09:35;8.57;;;5.30;;
5458;SDS011;2752;49.992;8.422;2023-06-26T07:12:01;7.87;;;5.17;;
5458;SDS011;2752;49.992;8.422;2023-06-26T07:14:28;10.20;;;5.00;;
5458;SDS011;2752;49.992;8.422;2023-06-26T07:16:55;9.33;;;6.13;;
5458;SDS011;2752;49.992;8.422;2023-06-26T07:19:22;14.67;;;5.67;;
5458;SDS011;2752;49.992;8.422;2023-06-26T07:21:48;15.77;;;5.13;;
5458;SDS011;2752;49.992;8.422;2023-06-26T07:24:15;11.60;;;5.23;;
5458;SDS011;2752;49.992;8.422;2023-06-26T07:26:43;10.30;;;5.80;;
5458;SDS011;2752;49.992;8.422;2023-06-26T07:29:09;10.60;;;5.70;;
5458;SDS011;2752;49.992;8.422;2023-06-26T07:31:36;8.83;;;5.03;;
5458;SDS011;2752;49.992;8.422;2023-06-26T07:34:03;8.50;;;5.60;;
5458;SDS011;2752;49.992;8.422;2023-06-26T07:36:29;8.77;;;5.13;;
5458;SDS011;2752;49.992;8.422;2023-06-26T07:38:56;7.97;;;4.67;;
5458;SDS011;2752;49.992;8.422;2023-06-26T07:41:22;11.60;;;5.40;;
5458;SDS011;2752;49.992;8.422;2023-06-26T07:43:50;12.43;;;5.67;;
5458;SDS011;2752;49.992;8.422;2023-06-26T07:46:17;10.77;;;4.73;;
5458;SDS011;2752;49.992;8.422;2023-06-26T07:48:44;11.47;;;4.73;;
5458;SDS011;2752;49.992;8.422;2023-06-26T07:51:10;11.47;;;5.37;;
5458;SDS011;2752;49.992;8.422;2023-06-26T07:53:37;9.97;;;5.10;;
5458;SDS011;2752;49.992;8.422;2023-06-26T07:56:04;7.10;;;4.30;;
5458;SDS011;2752;49.992;8.422;2023-06-26T07:58:30;8.60;;;5.07;;
5458;SDS011;2752;49.992;8.422;2023-06-26T08:00:58;9.93;;;5.30;;
5458;SDS011;2752;49.992;8.422;2023-06-26T08:03:25;6.30;;;4.70;;
5458;SDS011;2752;49.992;8.422;2023-06-26T08:05:51;8.30;;;4.97;;
5458;SDS011;2752;49.992;8.422;2023-06-26T08:08:18;6.07;;;4.10;;
5458;SDS011;2752;49.992;8.422;2023-06-26T08:10:45;10.87;;;4.77;;
5458;SDS011;2752;49.992;8.422;2023-06-26T08:13:11;9.13;;;4.80;;
5458;SDS011;2752;49.992;8.422;2023-06-26T08:15:38;6.67;;;4.73;;
5458;SDS011;2752;49.992;8.422;2023-06-26T08:18:06;8.23;;;4.90;;
5458;SDS011;2752;49.992;8.422;2023-06-26T08:20:33;11.27;;;5.27;;
5458;SDS011;2752;49.992;8.422;2023-06-26T08:23:00;7.00;;;5.23;;
5458;SDS011;2752;49.992;8.422;2023-06-26T08:25:27;13.80;;;5.17;;
5458;SDS011;2752;49.992;8.422;2023-06-26T08:27:54;5.70;;;4.10;;
5458;SDS011;2752;49.992;8.422;2023-06-26T08:30:20;6.40;;;4.20;;
5458;SDS011;2752;49.992;8.422;2023-06-26T08:32:50;6.80;;;4.53;;
5458;SDS011;2752;49.992;8.422;2023-06-26T08:35:18;7.50;;;4.63;;
5458;SDS011;2752;49.992;8.422;2023-06-26T08:37:45;13.20;;;5.50;;
5458;SDS011;2752;49.992;8.422;2023-06-26T08:40:11;8.83;;;4.03;;
5458;SDS011;2752;49.992;8.422;2023-06-26T08:42:38;8.37;;;4.63;;
5458;SDS011;2752;49.992;8.422;2023-06-26T08:45:06;7.20;;;4.43;;
5458;SDS011;2752;49.992;8.422;2023-06-26T08:47:34;12.73;;;5.00;;
5458;SDS011;2752;49.992;8.422;2023-06-26T08:50:05;8.17;;;4.30;;
5458;SDS011;2752;49.992;8.422;2023-06-26T08:52:37;12.37;;;4.20;;
5458;SDS011;2752;49.992;8.422;2023-06-26T08:55:10;5.87;;;4.03;;
5458;SDS011;2752;49.992;8.422;2023-06-26T08:57:38;7.60;;;4.50;;
5458;SDS011;2752;49.992;8.422;2023-06-26T09:00:05;7.50;;;4.67;;
5458;SDS011;2752;49.992;8.422;2023-06-26T09:02:35;7.20;;;4.10;;
5458;SDS011;2752;49.992;8.422;2023-06-26T09:05:02;7.70;;;4.40;;
5458;SDS011;2752;49.992;8.422;2023-06-26T09:07:30;8.77;;;5.00;;
5458;SDS011;2752;49.992;8.422;2023-06-26T09:09:58;8.27;;;4.63;;
5458;SDS011;2752;49.992;8.422;2023-06-26T09:12:26;5.90;;;4.10;;
5458;SDS011;2752;49.992;8.422;2023-06-26T09:14:53;7.03;;;4.40;;
5458;SDS011;2752;49.992;8.422;2023-06-26T09:17:24;5.87;;;4.20;;
5458;SDS011;2752;49.992;8.422;2023-06-26T09:19:50;7.33;;;4.60;;
5458;SDS011;2752;49.992;8.422;2023-06-26T09:22:17;7.57;;;4.30;;
5458;SDS011;2752;49.992;8.422;2023-06-26T09:24:44;4.90;;;3.67;;
5458;SDS011;2752;49.992;8.422;2023-06-26T09:27:14;7.50;;;4.53;;
5458;SDS011;2752;49.992;8.422;2023-06-26T09:29:42;6.70;;;4.83;;
5458;SDS011;2752;49.992;8.422;2023-06-26T09:32:12;7.00;;;4.00;;
5458;SDS011;2752;49.992;8.422;2023-06-26T09:34:41;9.83;;;4.90;;
5458;SDS011;2752;49.992;8.422;2023-06-26T09:37:11;7.10;;;3.80;;
5458;SDS011;2752;49.992;8.422;2023-06-26T09:39:38;17.97;;;4.63;;
5458;SDS011;2752;49.992;8.422;2023-06-26T09:42:05;7.60;;;4.80;;
5458;SDS011;2752;49.992;8.422;2023-06-26T09:44:34;8.17;;;4.80;;
5458;SDS011;2752;49.992;8.422;2023-06-26T09:47:01;6.63;;;4.80;;
5458;SDS011;2752;49.992;8.422;2023-06-26T09:49:29;8.13;;;4.20;;
5458;SDS011;2752;49.992;8.422;2023-06-26T09:51:57;6.40;;;4.20;;
5458;SDS011;2752;49.992;8.422;2023-06-26T09:54:27;5.40;;;4.23;;
5458;SDS011;2752;49.992;8.422;2023-06-26T09:56:56;7.33;;;4.03;;
5458;SDS011;2752;49.992;8.422;2023-06-26T09:59:36;5.27;;;3.67;;
5458;SDS011;2752;49.992;8.422;2023-06-26T10:02:04;7.03;;;4.07;;
5458;SDS011;2752;49.992;8.422;2023-06-26T10:04:31;7.10;;;4.03;;
5458;SDS011;2752;49.992;8.422;2023-06-26T10:06:58;10.10;;;4.60;;
5458;SDS011;2752;49.992;8.422;2023-06-26T10:09:28;9.20;;;4.40;;
5458;SDS011;2752;49.992;8.422;2023-06-26T10:11:57;6.53;;;3.97;;
5458;SDS011;2752;49.992;8.422;2023-06-26T10:14:31;7.00;;;4.10;;
5458;SDS011;2752;49.992;8.422;2023-06-26T10:17:08;8.60;;;4.00;;
5458;SDS011;2752;49.992;8.422;2023-06-26T10:19:38;6.00;;;3.60;;
5458;SDS011;2752;49.992;8.422;2023-06-26T10:22:09;10.33;;;4.73;;
5458;SDS011;2752;49.992;8.422;2023-06-26T10:24:40;5.20;;;3.70;;
5458;SDS011;2752;49.992;8.422;2023-06-26T10:27:08;7.33;;;4.13;;
5458;SDS011;2752;49.992;8.422;2023-06-26T10:29:45;6.30;;;3.90;;
5458;SDS011;2752;49.992;8.422;2023-06-26T10:32:18;7.07;;;4.33;;
5458;SDS011;2752;49.992;8.422;2023-06-26T10:34:47;6.83;;;4.00;;
5458;SDS011;2752;49.992;8.422;2023-06-26T10:37:14;7.83;;;4.70;;
5458;SDS011;2752;49.992;8.422;2023-06-26T10:39:47;5.83;;;3.80;;
5458;SDS011;2752;49.992;8.422;2023-06-26T10:42:15;7.53;;;4.07;;
5458;SDS011;2752;49.992;8.422;2023-06-26T10:44:44;7.63;;;4.47;;
5458;SDS011;2752;49.992;8.422;2023-06-26T10:47:11;7.67;;;4.30;;
5458;SDS011;2752;49.992;8.422;2023-06-26T10:49:56;6.43;;;4.10;;
5458;SDS011;2752;49.992;8.422;2023-06-26T10:52:25;8.30;;;4.07;;
5458;SDS011;2752;49.992;8.422;2023-06-26T10:54:52;5.43;;;3.80;;
5458;SDS011;2752;49.992;8.422;2023-06-26T10:57:23;7.17;;;3.93;;
5458;SDS011;2752;49.992;8.422;2023-06-26T11:02:47;7.00;;;4.07;;
5458;SDS011;2752;49.992;8.422;2023-06-26T11:05:24;6.20;;;4.27;;
5458;SDS011;2752;49.992;8.422;2023-06-26T11:08:04;8.83;;;3.47;;
5458;SDS011;2752;49.992;8.422;2023-06-26T11:10:48;5.50;;;3.80;;
5458;SDS011;2752;49.992;8.422;2023-06-26T11:13:16;8.17;;;3.90;;
5458;SDS011;2752;49.992;8.422;2023-06-26T11:15:44;6.00;;;4.10;;
5458;SDS011;2752;49.992;8.422;2023-06-26T11:18:12;17.50;;;4.03;;
5458;SDS011;2752;49.992;8.422;2023-06-26T11:20:40;7.00;;;3.97;;
5458;SDS011;2752;49.992;8.422;2023-06-26T11:23:08;6.43;;;4.00;;
5458;SDS011;2752;49.992;8.422;2023-06-26T11:25:36;7.67;;;4.27;;
5458;SDS011;2752;49.992;8.422;2023-06-26T11:28:04;9.53;;;3.80;;
5458;SDS011;2752;49.992;8.422;2023-06-26T11:30:31;8.53;;;3.93;;
5458;SDS011;2752;49.992;8.422;2023-06-26T11:33:02;8.10;;;3.97;;
5458;SDS011;2752;49.992;8.422;2023-06-26T11:35:30;5.70;;;3.43;;
5458;SDS011;2752;49.992;8.422;2023-06-26T11:37:59;5.90;;;3.90;;
5458;SDS011;2752;49.992;8.422;2023-06-26T11:40:29;6.30;;;3.77;;
5458;SDS011;2752;49.992;8.422;2023-06-26T11:42:57;5.40;;;3.83;;
5458;SDS011;2752;49.992;8.422;2023-06-26T11:45:24;5.80;;;3.80;;
5458;SDS011;2752;49.992;8.422;2023-06-26T11:47:51;5.53;;;3.40;;
5458;SDS011;2752;49.992;8.422;2023-06-26T11:50:18;8.50;;;5.43;;
5458;SDS011;2752;49.992;8.422;2023-06-26T11:52:45;8.53;;;4.83;;
5458;SDS011;2752;49.992;8.422;2023-06-26T11:55:20;9.73;;;5.30;;
5458;SDS011;2752;49.992;8.422;2023-06-26T11:57:47;7.40;;;4.83;;
5458;SDS011;2752;49.992;8.422;2023-06-26T12:00:15;11.00;;;5.90;;
5458;SDS011;2752;49.992;8.422;2023-06-26T12:02:43;8.03;;;5.30;;
5458;SDS011;2752;49.992;8.422;2023-06-26T12:05:11;13.47;;;6.60;;
5458;SDS011;2752;49.992;8.422;2023-06-26T12:07:39;11.03;;;6.10;;
5458;SDS011;2752;49.992;8.422;2023-06-26T12:10:07;10.60;;;5.70;;
5458;SDS011;2752;49.992;8.422;2023-06-26T12:12:36;12.10;;;6.70;;
5458;SDS011;2752;49.992;8.422;2023-06-26T12:15:05;10.43;;;6.23;;
5458;SDS011;2752;49.992;8.422;2023-06-26T12:17:36;10.60;;;6.50;;
5458;SDS011;2752;49.992;8.422;2023-06-26T12:20:04;9.20;;;5.10;;
5458;SDS011;2752;49.992;8.422;2023-06-26T12:22:42;12.60;;;6.30;;
5458;SDS011;2752;49.992;8.422;2023-06-26T12:25:11;7.50;;;4.70;;
5458;SDS011;2752;49.992;8.422;2023-06-26T12:27:39;11.50;;;4.33;;
5458;SDS011;2752;49.992;8.422;2023-06-26T12:30:06;8.13;;;4.53;;
5458;SDS011;2752;49.992;8.422;2023-06-26T12:32:34;8.30;;;4.53;;
5458;SDS011;2752;49.992;8.422;2023-06-26T12:35:01;12.63;;;4.87;;
5458;SDS011;2752;49.992;8.422;2023-06-26T12:37:35;14.53;;;4.77;;
5458;SDS011;2752;49.992;8.422;2023-06-26T12:40:10;7.03;;;4.70;;
5458;SDS011;2752;49.992;8.422;2023-06-26T12:42:45;8.47;;;3.70;;
5458;SDS011;2752;49.992;8.422;2023-06-26T12:45:13;5.90;;;4.30;;
5458;SDS011;2752;49.992;8.422;2023-06-26T12:47:40;6.27;;;3.80;;
5458;SDS011;2752;49.992;8.422;2023-06-26T12:50:07;8.57;;;4.67;;
5458;SDS011;2752;49.992;8.422;2023-06-26T12:52:34;9.47;;;3.80;;
5458;SDS011;2752;49.992;8.422;2023-06-26T12:55:01;9.63;;;4.00;;
5458;SDS011;2752;49.992;8.422;2023-06-26T12:57:28;6.13;;;4.17;;
5458;SDS011;2752;49.992;8.422;2023-06-26T12:59:56;8.17;;;3.80;;
5458;SDS011;2752;49.992;8.422;2023-06-26T13:02:24;5.80;;;3.37;;
5458;SDS011;2752;49.992;8.422;2023-06-26T13:04:51;5.07;;;3.70;;
5458;SDS011;2752;49.992;8.422;2023-06-26T13:07:17;8.80;;;3.60;;
5458;SDS011;2752;49.992;8.422;2023-06-26T13:09:44;8.93;;;4.60;;
5458;SDS011;2752;49.992;8.422;2023-06-26T13:12:13;10.40;;;4.30;;
5458;SDS011;2752;49.992;8.422;2023-06-26T13:14:40;4.77;;;3.40;;
5458;SDS011;2752;49.992;8.422;2023-06-26T13:17:08;10.00;;;3.93;;
5458;SDS011;2752;49.992;8.422;2023-06-26T13:19:34;6.27;;;3.80;;
5458;SDS011;2752;49.992;8.422;2023-06-26T13:22:01;9.50;;;4.20;;
5458;SDS011;2752;49.992;8.422;2023-06-26T13:24:27;6.90;;;3.77;;
5458;SDS011;2752;49.992;8.422;2023-06-26T13:26:54;9.23;;;4.10;;
5458;SDS011;2752;49.992;8.422;2023-06-26T13:29:21;7.20;;;3.53;;
5458;SDS011;2752;49.992;8.422;2023-06-26T13:31:48;10.63;;;3.50;;
5458;SDS011;2752;49.992;8.422;2023-06-26T13:34:22;6.00;;;3.87;;
5458;SDS011;2752;49.992;8.422;2023-06-26T13:36:49;8.40;;;3.10;;
5458;SDS011;2752;49.992;8.422;2023-06-26T13:39:16;7.20;;;2.80;;
5458;SDS011;2752;49.992;8.422;2023-06-26T13:41:42;4.80;;;3.10;;
5458;SDS011;2752;49.992;8.422;2023-06-26T13:44:09;4.90;;;3.00;;
5458;SDS011;2752;49.992;8.422;2023-06-26T13:46:36;7.90;;;3.67;;
5458;SDS011;2752;49.992;8.422;2023-06-26T13:49:02;5.20;;;2.50;;
5458;SDS011;2752;49.992;8.422;2023-06-26T13:51:30;5.77;;;3.67;;
5458;SDS011;2752;49.992;8.422;2023-06-26T13:53:57;6.60;;;2.73;;
5458;SDS011;2752;49.992;8.422;2023-06-26T13:56:25;5.53;;;3.03;;
5458;SDS011;2752;49.992;8.422;2023-06-26T13:58:51;8.03;;;2.80;;
5458;SDS011;2752;49.992;8.422;2023-06-26T14:01:19;10.83;;;3.20;;
5458;SDS011;2752;49.992;8.422;2023-06-26T14:03:46;11.93;;;3.07;;
5458;SDS011;2752;49.992;8.422;2023-06-26T14:06:12;7.50;;;3.00;;
5458;SDS011;2752;49.992;8.422;2023-06-26T14:08:40;5.30;;;3.40;;
5458;SDS011;2752;49.992;8.422;2023-06-26T14:11:07;8.63;;;2.90;;
5458;SDS011;2752;49.992;8.422;2023-06-26T14:13:34;3.20;;;2.57;;
5458;SDS011;2752;49.992;8.422;2023-06-26T14:16:01;5.37;;;2.43;;
5458;SDS011;2752;49.992;8.422;2023-06-26T14:18:27;11.93;;;2.60;;
5458;SDS011;2752;49.992;8.422;2023-06-26T14:20:54;2.37;;;2.17;;
5458;SDS011;2752;49.992;8.422;2023-06-26T14:23:21;4.53;;;2.97;;
5458;SDS011;2752;49.992;8.422;2023-06-26T14:25:49;5.50;;;3.00;;
5458;SDS011;2752;49.992;8.422;2023-06-26T14:28:16;5.23;;;2.47;;
5458;SDS011;2752;49.992;8.422;2023-06-26T14:30:43;6.27;;;2.10;;
5458;SDS011;2752;49.992;8.422;2023-06-26T14:33:09;3.57;;;2.07;;
5458;SDS011;2752;49.992;8.422;2023-06-26T14:35:36;3.73;;;1.67;;
5458;SDS011;2752;49.992;8.422;2023-06-26T14:38:03;10.40;;;1.87;;
5458;SDS011;2752;49.992;8.422;2023-06-26T14:40:29;5.80;;;2.23;;
5458;SDS011;2752;49.992;8.422;2023-06-26T14:42:57;4.27;;;1.97;;
5458;SDS011;2752;49.992;8.422;2023-06-26T14:45:24;3.50;;;2.20;;
5458;SDS011;2752;49.992;8.422;2023-06-26T14:47:51;7.10;;;2.10;;
5458;SDS011;2752;49.992;8.422;2023-06-26T14:50:17;6.63;;;2.90;;
5458;SDS011;2752;49.992;8.422;2023-06-26T14:52:44;3.60;;;3.13;;
5458;SDS011;2752;49.992;8.422;2023-06-26T14:55:11;2.73;;;1.40;;
5458;SDS011;2752;49.992;8.422;2023-06-26T14:57:37;3.10;;;1.47;;
5458;SDS011;2752;49.992;8.422;2023-06-26T15:00:06;6.10;;;2.10;;
5458;SDS011;2752;49.992;8.422;2023-06-26T15:02:34;3.40;;;1.83;;
5458;SDS011;2752;49.992;8.422;2023-06-26T15:05:00;4.97;;;1.63;;
5458;SDS011;2752;49.992;8.422;2023-06-26T15:07:27;3.70;;;1.67;;
5458;SDS011;2752;49.992;8.422;2023-06-26T15:09:54;5.20;;;2.20;;
5458;SDS011;2752;49.992;8.422;2023-06-26T15:12:21;2.47;;;1.30;;
5458;SDS011;2752;49.992;8.422;2023-06-26T15:14:48;2.23;;;1.57;;
5458;SDS011;2752;49.992;8.422;2023-06-26T15:17:17;3.30;;;1.43;;